createdAt,value
2016-11-14T00:00:11.138Z,1.82
2016-11-14T00:01:11.010Z,1.88
2016-11-14T00:02:10.817Z,1.64
2016-11-14T00:03:12.206Z,1.78
2016-11-14T00:04:11.017Z,1.79
2016-11-14T00:05:11.220Z,1.79
2016-11-14T00:06:11.618Z,1.8
2016-11-14T00:07:12.013Z,1.8
2016-11-14T00:08:11.558Z,1.82
2016-11-14T00:09:10.475Z,1.83
2016-11-14T00:10:10.630Z,1.78
2016-11-14T00:11:10.742Z,1.71
2016-11-14T00:12:11.470Z,1.64
2016-11-14T00:13:11.687Z,1.68
2016-11-14T00:14:11.399Z,1.54
2016-11-14T00:15:11.122Z,1.49
2016-11-14T00:16:11.098Z,1.54
2016-11-14T00:17:11.227Z,1.6
2016-11-14T00:18:11.292Z,1.61
2016-11-14T00:19:11.112Z,1.61
2016-11-14T00:20:10.494Z,1.67
2016-11-14T00:21:10.472Z,1.72
2016-11-14T00:22:10.844Z,1.65
2016-11-14T00:23:10.943Z,1.67
2016-11-14T00:24:11.560Z,1.68
2016-11-14T00:25:11.512Z,1.55
2016-11-14T00:26:11.339Z,1.46
2016-11-14T00:27:10.660Z,1.37
2016-11-14T00:28:10.621Z,1.31
2016-11-14T00:29:11.404Z,1.37
2016-11-14T00:30:10.722Z,1.53
2016-11-14T00:31:11.217Z,1.57
2016-11-14T00:32:10.656Z,1.49
2016-11-14T00:33:11.293Z,1.55
2016-11-14T00:34:09.894Z,1.57
2016-11-14T00:35:10.580Z,1.61
2016-11-14T00:36:11.221Z,1.5
2016-11-14T00:37:11.082Z,1.53
2016-11-14T00:38:11.172Z,1.4
2016-11-14T00:39:10.324Z,1.36
2016-11-14T00:40:09.723Z,1.44
2016-11-14T00:41:10.249Z,1.26
2016-11-14T00:42:10.052Z,1.26
2016-11-14T00:43:10.029Z,1.31
2016-11-14T00:44:09.939Z,1.28
2016-11-14T00:45:10.313Z,1.28
2016-11-14T00:46:10.284Z,1.26
2016-11-14T00:47:10.270Z,1.28
2016-11-14T00:48:10.921Z,1.28
2016-11-14T00:49:10.850Z,1.39
2016-11-14T00:50:09.972Z,1.53
2016-11-14T00:51:10.684Z,1.54
2016-11-14T00:52:10.394Z,1.53
2016-11-14T00:53:10.751Z,1.57
2016-11-14T00:54:09.418Z,1.37
2016-11-14T00:55:09.996Z,1.06
2016-11-14T00:56:09.706Z,0.9
2016-11-14T00:57:09.578Z,0.99
2016-11-14T00:58:09.501Z,0.93
2016-11-14T00:59:10.571Z,0.93
2016-11-14T01:00:10.211Z,1.07
2016-11-14T01:01:09.085Z,0.86
2016-11-14T01:02:10.452Z,0.86
2016-11-14T01:03:09.850Z,0.82
2016-11-14T01:04:09.603Z,0.64
2016-11-14T01:05:09.613Z,0.65
2016-11-14T01:06:10.429Z,0.68
2016-11-14T01:07:09.965Z,0.71
2016-11-14T01:08:09.046Z,0.7
2016-11-14T01:09:09.581Z,0.62
2016-11-14T01:10:09.734Z,0.64
2016-11-14T01:11:10.273Z,0.67
2016-11-14T01:12:09.582Z,0.71
2016-11-14T01:13:09.549Z,0.53
2016-11-14T01:14:09.042Z,0.74
2016-11-14T01:15:10.155Z,0.89
2016-11-14T01:16:08.671Z,1.01
2016-11-14T01:17:08.987Z,0.97
2016-11-14T01:18:10.082Z,0.9
2016-11-14T01:19:09.375Z,0.82
2016-11-14T01:20:08.946Z,1
2016-11-14T01:21:09.582Z,0.82
2016-11-14T01:22:09.572Z,0.9
2016-11-14T01:23:09.514Z,0.64
2016-11-14T01:24:09.099Z,0.6
2016-11-14T01:25:08.805Z,0.7
2016-11-14T01:26:09.854Z,0.83
2016-11-14T01:27:09.191Z,0.99
2016-11-14T01:28:09.019Z,1.04
2016-11-14T01:29:09.069Z,1.07
2016-11-14T01:30:09.765Z,1.08
2016-11-14T01:31:08.684Z,1.08
2016-11-14T01:32:08.344Z,1.21
2016-11-14T01:33:09.685Z,1.19
2016-11-14T01:34:09.654Z,0.88
2016-11-14T01:35:08.545Z,0.92
2016-11-14T01:36:08.766Z,0.7
2016-11-14T01:37:08.481Z,0.75
2016-11-14T01:38:09.539Z,0.92
2016-11-14T01:39:08.833Z,0.9
2016-11-14T01:40:09.472Z,0.96
2016-11-14T01:41:08.772Z,0.9
2016-11-14T01:42:08.993Z,0.75
2016-11-14T01:43:08.735Z,0.72
2016-11-14T01:44:08.699Z,0.83
2016-11-14T01:45:08.913Z,0.86
2016-11-14T01:46:08.639Z,0.99
2016-11-14T01:47:08.443Z,0.99
2016-11-14T01:48:08.629Z,1.15
2016-11-14T01:49:08.494Z,1.19
2016-11-14T01:50:08.766Z,1.18
2016-11-14T01:51:07.775Z,1.22
2016-11-14T01:52:08.414Z,1.28
2016-11-14T01:53:08.370Z,1.19
2016-11-14T01:54:07.695Z,1.19
2016-11-14T01:55:09.105Z,1.19
2016-11-14T01:56:08.090Z,1.13
2016-11-14T01:57:08.306Z,1.18
2016-11-14T01:58:08.552Z,1.26
2016-11-14T01:59:08.272Z,1.28
2016-11-14T02:00:08.403Z,1.19
2016-11-14T02:01:08.335Z,1.17
2016-11-14T02:02:08.230Z,1.21
2016-11-14T02:03:08.969Z,1.17
2016-11-14T02:04:08.816Z,1.26
2016-11-14T02:05:07.627Z,1.24
2016-11-14T02:06:08.326Z,1.18
2016-11-14T02:07:07.648Z,1.15
2016-11-14T02:08:07.405Z,1.08
2016-11-14T02:09:08.107Z,1.1
2016-11-14T02:10:07.999Z,0.92
2016-11-14T02:11:08.302Z,0.97
2016-11-14T02:12:07.511Z,1.08
2016-11-14T02:13:08.156Z,1.13
2016-11-14T02:14:07.804Z,1.04
2016-11-14T02:15:07.195Z,1.17
2016-11-14T02:16:07.813Z,1.19
2016-11-14T02:17:07.171Z,1.21
2016-11-14T02:18:08.010Z,1.17
2016-11-14T02:19:08.397Z,1.22
2016-11-14T02:20:07.692Z,1.26
2016-11-14T02:21:08.201Z,1.28
2016-11-14T02:22:06.924Z,1.28
2016-11-14T02:23:08.281Z,1.15
2016-11-14T02:24:07.848Z,0.96
2016-11-14T02:25:08.256Z,0.62
2016-11-14T02:26:07.462Z,0.39
2016-11-14T02:27:08.176Z,0.41
2016-11-14T02:28:07.487Z,0.31
2016-11-14T02:29:06.809Z,0.25
2016-11-14T02:30:07.811Z,0.17
2016-11-14T02:31:06.681Z,0.16
2016-11-14T02:32:08.091Z,0.31
2016-11-14T02:33:07.339Z,0.31
2016-11-14T02:34:07.423Z,0.42
2016-11-14T02:35:07.811Z,0.41
2016-11-14T02:36:07.916Z,0.45
2016-11-14T02:37:06.752Z,0.39
2016-11-14T02:38:07.214Z,0.34
2016-11-14T02:39:07.883Z,0.41
2016-11-14T02:40:07.742Z,0.31
2016-11-14T02:41:07.776Z,0.15
2016-11-14T02:42:06.939Z,0.45
2016-11-14T02:43:06.447Z,0.56
2016-11-14T02:44:06.560Z,0.57
2016-11-14T02:45:06.647Z,0.72
2016-11-14T02:46:06.580Z,0.82
2016-11-14T02:47:06.980Z,0.88
2016-11-14T02:48:06.849Z,0.85
2016-11-14T02:49:06.596Z,0.67
2016-11-14T02:50:07.119Z,0.51
2016-11-14T02:51:07.098Z,0.61
2016-11-14T02:52:06.759Z,0.43
2016-11-14T02:53:06.785Z,0.48
2016-11-14T02:54:06.407Z,0.43
2016-11-14T02:55:06.252Z,0.31
2016-11-14T02:56:06.114Z,0.46
2016-11-14T02:57:06.932Z,0.49
2016-11-14T02:58:06.568Z,0.53
2016-11-14T02:59:06.221Z,0.65
2016-11-14T03:00:07.234Z,0.57
2016-11-14T03:01:06.810Z,0.7
2016-11-14T03:02:07.207Z,0.56
2016-11-14T03:03:06.869Z,0.51
2016-11-14T03:04:06.084Z,0.6
2016-11-14T03:05:06.382Z,0.68
2016-11-14T03:06:06.753Z,0.62
2016-11-14T03:07:07.065Z,0.71
2016-11-14T03:08:07.030Z,0.64
2016-11-14T03:09:06.333Z,0.65
2016-11-14T03:10:05.911Z,0.71
2016-11-14T03:11:06.534Z,0.74
2016-11-14T03:12:06.096Z,0.71
2016-11-14T03:13:05.510Z,0.8
2016-11-14T03:14:06.858Z,0.8
2016-11-14T03:15:05.529Z,0.79
2016-11-14T03:16:06.679Z,0.89
2016-11-14T03:17:05.706Z,0.8
2016-11-14T03:18:05.681Z,0.78
2016-11-14T03:19:05.420Z,0.67
2016-11-14T03:20:06.080Z,0.78
2016-11-14T03:21:05.913Z,0.78
2016-11-14T03:22:06.635Z,0.68
2016-11-14T03:23:05.894Z,0.53
2016-11-14T03:24:05.910Z,0.43
2016-11-14T03:25:06.561Z,0.41
2016-11-14T03:26:05.926Z,0.48
2016-11-14T03:27:06.083Z,0.6
2016-11-14T03:28:05.172Z,0.62
2016-11-14T03:29:06.314Z,0.67
2016-11-14T03:30:05.997Z,0.65
2016-11-14T03:31:06.382Z,0.71
2016-11-14T03:32:04.904Z,0.7
2016-11-14T03:33:05.928Z,0.65
2016-11-14T03:34:05.894Z,0.7
2016-11-14T03:35:06.262Z,0.62
2016-11-14T03:36:06.260Z,0.75
2016-11-14T03:37:05.794Z,0.61
2016-11-14T03:38:06.164Z,0.61
2016-11-14T03:39:05.117Z,0.53
2016-11-14T03:40:05.073Z,0.33
2016-11-14T03:41:05.971Z,0.17
2016-11-14T03:42:05.265Z,0.13
2016-11-14T03:43:05.002Z,0.1
2016-11-14T03:44:06.021Z,0.05
2016-11-14T03:45:05.265Z,0.13
2016-11-14T03:46:04.919Z,0.15
2016-11-14T03:47:05.302Z,0.24
2016-11-14T03:48:05.272Z,0.31
2016-11-14T03:49:04.824Z,0.16
2016-11-14T03:50:05.051Z,0.21
2016-11-14T03:51:05.823Z,0.24
2016-11-14T03:52:05.141Z,0.35
2016-11-14T03:53:04.725Z,0.25
2016-11-14T03:54:05.114Z,0.09
2016-11-14T03:55:05.012Z,0.05
2016-11-14T03:56:05.290Z,0.07
2016-11-14T03:57:05.690Z,-0.03
2016-11-14T03:58:04.337Z,0.06
2016-11-14T03:59:05.205Z,-0.01
2016-11-14T04:00:04.914Z,0.21
2016-11-14T04:01:04.812Z,0.24
2016-11-14T04:02:05.102Z,0.27
2016-11-14T04:03:04.491Z,0.41
2016-11-14T04:04:05.500Z,0.46
2016-11-14T04:05:04.859Z,0.42
2016-11-14T04:06:05.006Z,0.48
2016-11-14T04:07:04.187Z,0.61
2016-11-14T04:08:03.893Z,0.57
2016-11-14T04:09:04.614Z,0.64
2016-11-14T04:10:04.892Z,0.64
2016-11-14T04:11:04.621Z,0.53
2016-11-14T04:12:04.512Z,0.39
2016-11-14T04:13:05.241Z,0.45
2016-11-14T04:14:05.036Z,0.42
2016-11-14T04:15:05.070Z,0.46
2016-11-14T04:16:04.732Z,0.41
2016-11-14T04:17:04.475Z,0.41
2016-11-14T04:18:03.790Z,0.43
2016-11-14T04:19:05.045Z,0.53
2016-11-14T04:20:04.296Z,0.6
2016-11-14T04:21:03.678Z,0.71
2016-11-14T04:22:04.977Z,0.61
2016-11-14T04:23:04.816Z,0.68
2016-11-14T04:24:04.172Z,0.75
2016-11-14T04:25:03.810Z,0.71
2016-11-14T04:26:04.850Z,0.65
2016-11-14T04:27:04.821Z,0.79
2016-11-14T04:28:03.731Z,0.74
2016-11-14T04:29:04.220Z,0.85
2016-11-14T04:30:03.996Z,0.75
2016-11-14T04:31:04.724Z,0.8
2016-11-14T04:32:04.286Z,0.64
2016-11-14T04:33:04.669Z,0.53
2016-11-14T04:34:04.705Z,0.46
2016-11-14T04:35:03.302Z,0.61
2016-11-14T04:36:03.916Z,0.67
2016-11-14T04:37:03.899Z,0.61
2016-11-14T04:38:04.138Z,0.65
2016-11-14T04:39:04.479Z,0.68
2016-11-14T04:40:03.804Z,0.61
2016-11-14T04:41:03.790Z,0.65
2016-11-14T04:42:03.350Z,0.62
2016-11-14T04:43:03.555Z,0.67
2016-11-14T04:44:03.932Z,0.65
2016-11-14T04:45:03.872Z,0.6
2016-11-14T04:46:03.906Z,0.67
2016-11-14T04:47:03.624Z,0.56
2016-11-14T04:48:03.814Z,0.68
2016-11-14T04:49:04.194Z,0.6
2016-11-14T04:50:04.192Z,0.64
2016-11-14T04:51:03.807Z,0.64
2016-11-14T04:52:02.834Z,0.61
2016-11-14T04:53:03.705Z,0.48
2016-11-14T04:54:02.679Z,0.37
2016-11-14T04:55:02.996Z,0.15
2016-11-14T04:56:03.057Z,0.02
2016-11-14T04:57:03.990Z,-0.11
2016-11-14T04:58:02.580Z,-0.08
2016-11-14T04:59:02.882Z,-0.24
2016-11-14T05:00:03.910Z,-0.06
2016-11-14T05:01:03.901Z,0.05
2016-11-14T05:02:03.206Z,-0.11
2016-11-14T05:03:03.073Z,-0.02
2016-11-14T05:04:02.739Z,0.06
2016-11-14T05:05:03.107Z,0.31
2016-11-14T05:06:03.101Z,0.31
2016-11-14T05:07:03.066Z,0.35
2016-11-14T05:08:03.133Z,0.34
2016-11-14T05:09:02.863Z,0.48
2016-11-14T05:10:03.673Z,0.48
2016-11-14T05:11:02.944Z,0.43
2016-11-14T05:12:02.912Z,0.43
2016-11-14T05:13:03.133Z,0.49
2016-11-14T05:14:02.859Z,0.52
2016-11-14T05:15:02.825Z,0.41
2016-11-14T05:16:03.047Z,0.51
2016-11-14T05:17:02.787Z,0.42
2016-11-14T05:18:02.758Z,0.31
2016-11-14T05:19:02.572Z,0.42
2016-11-14T05:20:02.293Z,0.37
2016-11-14T05:21:02.917Z,0.46
2016-11-14T05:22:03.308Z,0.42
2016-11-14T05:23:03.106Z,0.52
2016-11-14T05:24:01.937Z,0.57
2016-11-14T05:25:03.238Z,0.6
2016-11-14T05:26:02.583Z,0.53
2016-11-14T05:27:02.497Z,0.51
2016-11-14T05:28:02.701Z,0.37
2016-11-14T05:29:02.503Z,0.46
2016-11-14T05:30:02.427Z,0.33
2016-11-14T05:31:02.472Z,0.35
2016-11-14T05:32:02.284Z,0.3
2016-11-14T05:33:02.263Z,0.48
2016-11-14T05:34:02.992Z,0.45
2016-11-14T05:35:02.953Z,0.15
2016-11-14T05:36:02.179Z,0.1
2016-11-14T05:37:01.838Z,0.28
2016-11-14T05:38:01.774Z,0.31
2016-11-14T05:39:02.824Z,0.45
2016-11-14T05:40:01.956Z,0.34
2016-11-14T05:41:02.825Z,0.35
2016-11-14T05:42:01.340Z,0.19
2016-11-14T05:43:01.677Z,0.23
2016-11-14T05:44:02.655Z,0.16
2016-11-14T05:45:02.247Z,0.42
2016-11-14T05:46:01.984Z,0.41
2016-11-14T05:47:01.534Z,0.34
2016-11-14T05:48:01.417Z,0.07
2016-11-14T05:49:01.924Z,-0.03
2016-11-14T05:50:01.875Z,-0.19
2016-11-14T05:51:01.836Z,-0.29
2016-11-14T05:52:01.393Z,-0.41
2016-11-14T05:53:01.365Z,-0.41
2016-11-14T05:54:01.747Z,-0.3
2016-11-14T05:55:02.436Z,-0.29
2016-11-14T05:56:02.193Z,-0.15
2016-11-14T05:57:01.897Z,-0.12
2016-11-14T05:58:01.211Z,-0.02
2016-11-14T05:59:00.863Z,0.03
2016-11-14T06:00:01.159Z,0.09
2016-11-14T06:01:01.412Z,0.09
2016-11-14T06:02:01.447Z,0.15
2016-11-14T06:03:01.006Z,0.21
2016-11-14T06:04:02.141Z,0.28
2016-11-14T06:05:02.091Z,0.25
2016-11-14T06:06:01.408Z,0.23
2016-11-14T06:07:00.823Z,0.27
2016-11-14T06:08:01.908Z,0.3
2016-11-14T06:09:02.005Z,0.31
2016-11-14T06:10:01.306Z,0.34
2016-11-14T06:11:01.251Z,0.23
2016-11-14T06:12:01.084Z,0.15
2016-11-14T06:13:01.307Z,0.16
2016-11-14T06:14:00.447Z,0.15
2016-11-14T06:15:01.145Z,-0.05
2016-11-14T06:16:01.367Z,-0.12
2016-11-14T06:17:01.107Z,0.02
2016-11-14T06:18:00.409Z,0.03
2016-11-14T06:19:00.439Z,0.06
2016-11-14T06:20:00.860Z,-0.03
2016-11-14T06:21:01.633Z,0.09
2016-11-14T06:22:01.597Z,0.15
2016-11-14T06:23:01.020Z,0.16
2016-11-14T06:24:00.533Z,0.28
2016-11-14T06:25:01.117Z,0.31
2016-11-14T06:26:00.704Z,0.15
2016-11-14T06:27:01.447Z,0.37
2016-11-14T06:28:00.337Z,0.27
2016-11-14T06:29:00.147Z,0.34
2016-11-14T06:30:01.280Z,0.31
2016-11-14T06:31:00.413Z,0.25
2016-11-14T06:32:00.666Z,0.13
2016-11-14T06:33:00.477Z,0.06
2016-11-14T06:34:00.624Z,0.19
2016-11-14T06:35:01.242Z,0.03
2016-11-14T06:36:01.126Z,-0.12
2016-11-14T06:37:00.294Z,-0.21
2016-11-14T06:37:59.849Z,-0.23
2016-11-14T06:39:00.463Z,-0.31
2016-11-14T06:40:00.037Z,-0.33
2016-11-14T06:41:00.524Z,-0.41
2016-11-14T06:42:00.684Z,-0.42
2016-11-14T06:43:01.024Z,-0.41
2016-11-14T06:44:00.603Z,-0.38
2016-11-14T06:44:59.894Z,-0.36
2016-11-14T06:46:00.947Z,-0.38
2016-11-14T06:47:00.247Z,-0.34
2016-11-14T06:48:00.463Z,-0.31
2016-11-14T06:49:00.834Z,-0.26
2016-11-14T06:50:00.823Z,-0.3
2016-11-14T06:51:00.124Z,-0.39
2016-11-14T06:52:00.333Z,-0.3
2016-11-14T06:52:59.574Z,-0.29
2016-11-14T06:54:00.067Z,-0.06
2016-11-14T06:54:59.925Z,-0.02
2016-11-14T06:56:00.243Z,0.21
2016-11-14T06:57:00.632Z,0.17
2016-11-14T06:58:00.157Z,0.06
2016-11-14T06:58:59.937Z,0.05
2016-11-14T07:00:00.115Z,0.16
2016-11-14T07:00:59.843Z,0.31
2016-11-14T07:01:59.736Z,0.24
2016-11-14T07:02:59.695Z,0.3
2016-11-14T07:03:59.029Z,0.27
2016-11-14T07:04:59.085Z,0.33
2016-11-14T07:05:59.726Z,0.31
2016-11-14T07:06:59.038Z,0.15
2016-11-14T07:07:59.631Z,0.1
2016-11-14T07:08:59.205Z,0.03
2016-11-14T07:09:59.196Z,-0.11
2016-11-14T07:11:00.252Z,-0.29
2016-11-14T07:11:58.798Z,-0.33
2016-11-14T07:12:59.759Z,-0.31
2016-11-14T07:13:59.990Z,-0.2
2016-11-14T07:14:59.467Z,-0.03
2016-11-14T07:15:59.428Z,0.16
2016-11-14T07:17:00.095Z,0.28
2016-11-14T07:17:59.646Z,0.16
2016-11-14T07:18:58.524Z,0.39
2016-11-14T07:19:59.543Z,0.35
2016-11-14T07:20:58.636Z,0.43
2016-11-14T07:21:58.849Z,0.43
2016-11-14T07:22:58.796Z,0.43
2016-11-14T07:23:58.725Z,0.42
2016-11-14T07:24:59.074Z,0.49
2016-11-14T07:25:59.404Z,0.42
2016-11-14T07:26:59.791Z,0.48
2016-11-14T07:27:59.324Z,0.41
2016-11-14T07:28:59.296Z,0.45
2016-11-14T07:29:59.103Z,0.53
2016-11-14T07:30:58.909Z,0.65
2016-11-14T07:31:58.966Z,0.65
2016-11-14T07:32:59.603Z,0.62
2016-11-14T07:33:59.154Z,0.72
2016-11-14T07:34:59.160Z,0.7
2016-11-14T07:35:58.801Z,0.86
2016-11-14T07:36:58.226Z,0.8
2016-11-14T07:37:58.635Z,0.88
2016-11-14T07:38:58.288Z,1.01
2016-11-14T07:39:58.583Z,1.07
2016-11-14T07:40:59.239Z,1.35
2016-11-14T07:41:59.346Z,1.54
2016-11-14T07:42:58.283Z,2.1
2016-11-14T07:43:58.502Z,2.48
2016-11-14T07:44:59.273Z,2.51
2016-11-14T07:45:58.848Z,2.58
2016-11-14T07:46:58.825Z,2.4
2016-11-14T07:47:58.147Z,2.19
2016-11-14T07:48:58.722Z,2.19
2016-11-14T07:49:58.421Z,1.54
2016-11-14T07:50:58.454Z,1.73
2016-11-14T07:51:57.782Z,1.79
2016-11-14T07:52:59.054Z,1.82
2016-11-14T07:53:58.613Z,1.55
2016-11-14T07:54:58.995Z,1.67
2016-11-14T07:55:58.676Z,1.46
2016-11-14T07:56:58.688Z,1.19
2016-11-14T07:57:58.955Z,1.1
2016-11-14T07:58:58.940Z,1.15
2016-11-14T07:59:57.730Z,1.25
2016-11-14T08:00:58.315Z,1.15
2016-11-14T08:01:58.086Z,1.19
2016-11-14T08:02:58.156Z,1.25
2016-11-14T08:03:58.353Z,1.35
2016-11-14T08:04:57.428Z,1.5
2016-11-14T08:05:58.071Z,1.54
2016-11-14T08:06:57.622Z,1.46
2016-11-14T08:07:58.665Z,1.71
2016-11-14T08:08:57.998Z,2.04
2016-11-14T08:09:57.551Z,2.2
2016-11-14T08:10:57.928Z,2.25
2016-11-14T08:11:58.005Z,2.34
2016-11-14T08:12:57.807Z,2.58
2016-11-14T08:13:57.435Z,2.62
2016-11-14T08:14:57.651Z,2.77
2016-11-14T08:15:58.044Z,2.61
2016-11-14T08:16:57.734Z,2.62
2016-11-14T08:17:57.741Z,2.98
2016-11-14T08:18:58.385Z,3.15
2016-11-14T08:19:57.715Z,3.65
2016-11-14T08:20:58.177Z,3.47
2016-11-14T08:21:58.360Z,3.42
2016-11-14T08:22:57.748Z,2.94
2016-11-14T08:23:57.617Z,2.91
2016-11-14T08:24:57.951Z,2.92
2016-11-14T08:25:57.135Z,3.25
2016-11-14T08:26:58.194Z,3.24
2016-11-14T08:27:57.730Z,3.57
2016-11-14T08:28:57.072Z,3.93
2016-11-14T08:29:57.701Z,3.6
2016-11-14T08:30:58.095Z,3.52
2016-11-14T08:31:56.670Z,3.28
2016-11-14T08:32:56.659Z,3.19
2016-11-14T08:33:58.027Z,3.37
2016-11-14T08:34:56.614Z,3.23
2016-11-14T08:35:56.887Z,3.15
2016-11-14T08:36:57.377Z,3.53
2016-11-14T08:37:56.625Z,3.49
2016-11-14T08:38:56.584Z,3.57
2016-11-14T08:39:57.143Z,3.52
2016-11-14T08:40:57.437Z,3.28
2016-11-14T08:41:57.879Z,3.61
2016-11-14T08:42:57.031Z,3.79
2016-11-14T08:43:56.732Z,3.86
2016-11-14T08:44:56.476Z,4.13
2016-11-14T08:45:57.762Z,4.52
2016-11-14T08:46:57.305Z,5.53
2016-11-14T08:47:57.285Z,4.95
2016-11-14T08:48:57.016Z,4.73
2016-11-14T08:49:56.789Z,4.72
2016-11-14T08:50:57.230Z,5.24
2016-11-14T08:51:56.250Z,6.16
2016-11-14T08:52:57.194Z,6.51
2016-11-14T08:53:56.294Z,6.22
2016-11-14T08:54:57.468Z,6.55
2016-11-14T08:55:56.904Z,6.16
2016-11-14T08:56:56.788Z,5.85
2016-11-14T08:57:56.875Z,5.29
2016-11-14T08:58:56.316Z,5.35
2016-11-14T08:59:56.173Z,5.26
2016-11-14T09:00:56.800Z,5.96
2016-11-14T09:01:57.247Z,6
2016-11-14T09:02:56.595Z,5.74
2016-11-14T09:03:56.755Z,6.37
2016-11-14T09:04:56.743Z,7.39
2016-11-14T09:05:56.302Z,7.17
2016-11-14T09:06:56.628Z,7.88
2016-11-14T09:07:57.347Z,8.5
2016-11-14T09:08:56.486Z,8.85
2016-11-14T09:09:56.575Z,8.37
2016-11-14T09:10:56.206Z,9.02
2016-11-14T09:11:55.806Z,9.4
2016-11-14T09:12:56.187Z,9.65
2016-11-14T09:13:55.851Z,8.36
2016-11-14T09:14:57.073Z,8.94
2016-11-14T09:15:56.794Z,9.35
2016-11-14T09:16:56.562Z,9.97
2016-11-14T09:17:57.147Z,10.46
2016-11-14T09:18:55.766Z,10.81
2016-11-14T09:19:57.148Z,11.36
2016-11-14T09:20:56.563Z,11.35
2016-11-14T09:21:56.283Z,10.26
2016-11-14T09:22:57.124Z,10.26
2016-11-14T09:23:56.515Z,11.05
2016-11-14T09:24:57.084Z,11.33
2016-11-14T09:25:56.227Z,11.94
2016-11-14T09:26:56.387Z,11.89
2016-11-14T09:27:56.277Z,10.48
2016-11-14T09:28:55.703Z,9.58
2016-11-14T09:29:56.573Z,9.21
2016-11-14T09:30:56.351Z,10.21
2016-11-14T09:31:55.501Z,10.95
2016-11-14T09:32:56.213Z,10.74
2016-11-14T09:33:56.071Z,9.95
2016-11-14T09:34:55.618Z,10.48
2016-11-14T09:35:55.611Z,9.38
2016-11-14T09:36:56.096Z,9.1
2016-11-14T09:37:56.345Z,8.69
2016-11-14T09:38:56.062Z,9.13
2016-11-14T09:39:55.811Z,9.45
2016-11-14T09:40:55.534Z,10.56
2016-11-14T09:41:56.178Z,10.57
2016-11-14T09:42:56.676Z,10.67
2016-11-14T09:43:56.757Z,10.87
2016-11-14T09:44:56.450Z,10.13
2016-11-14T09:45:55.396Z,9.85
2016-11-14T09:46:56.734Z,9.75
2016-11-14T09:47:55.612Z,9.82
2016-11-14T09:48:56.342Z,9.19
2016-11-14T09:49:56.295Z,7.31
2016-11-14T09:50:56.293Z,7.05
2016-11-14T09:51:56.043Z,6.68
2016-11-14T09:52:56.265Z,6.81
2016-11-14T09:53:56.232Z,7.06
2016-11-14T09:54:55.237Z,7.21
2016-11-14T09:55:55.469Z,6.9
2016-11-14T09:56:55.933Z,7.14
2016-11-14T09:57:55.836Z,7.59
2016-11-14T09:58:56.014Z,7.55
2016-11-14T09:59:55.664Z,7.38
2016-11-14T10:00:55.378Z,7.79
2016-11-14T10:01:56.542Z,8.09
2016-11-14T10:02:55.433Z,7.45
2016-11-14T10:03:56.476Z,6.47
2016-11-14T10:04:55.803Z,5.9
2016-11-14T10:05:55.693Z,6.29
2016-11-14T10:06:55.782Z,6.63
2016-11-14T10:07:55.590Z,7.14
2016-11-14T10:08:55.311Z,7.55
2016-11-14T10:09:55.046Z,7.41
2016-11-14T10:10:56.305Z,7.47
2016-11-14T10:11:55.262Z,6.73
2016-11-14T10:12:55.650Z,6.81
2016-11-14T10:13:54.988Z,6.59
2016-11-14T10:14:55.210Z,6.26
2016-11-14T10:15:55.835Z,6.32
2016-11-14T10:16:55.473Z,6.07
2016-11-14T10:17:55.797Z,6.43
2016-11-14T10:18:55.510Z,6.22
2016-11-14T10:19:55.742Z,6.54
2016-11-14T10:20:55.598Z,6.37
2016-11-14T10:21:55.714Z,6.8
2016-11-14T10:22:54.805Z,6.8
2016-11-14T10:23:55.351Z,7.01
2016-11-14T10:24:55.912Z,7.21
2016-11-14T10:25:55.378Z,6.72
2016-11-14T10:26:55.603Z,6.63
2016-11-14T10:27:54.682Z,6.43
2016-11-14T10:28:54.979Z,6.43
2016-11-14T10:29:55.295Z,6.37
2016-11-14T10:30:55.311Z,6.54
2016-11-14T10:31:55.267Z,7.08
2016-11-14T10:32:54.441Z,7.42
2016-11-14T10:33:55.731Z,7.75
2016-11-14T10:34:55.840Z,7.21
2016-11-14T10:35:54.456Z,7.19
2016-11-14T10:36:55.807Z,7.09
2016-11-14T10:37:55.771Z,7.26
2016-11-14T10:38:54.955Z,7.55
2016-11-14T10:39:54.449Z,7.3
2016-11-14T10:40:55.169Z,7.17
2016-11-14T10:41:54.968Z,7.38
2016-11-14T10:42:54.616Z,7.39
2016-11-14T10:43:55.251Z,7.29
2016-11-14T10:44:54.582Z,7.12
2016-11-14T10:45:55.229Z,7.06
2016-11-14T10:46:54.952Z,6.96
2016-11-14T10:47:54.518Z,7.19
2016-11-14T10:48:54.340Z,7.05
2016-11-14T10:49:54.659Z,7.12
2016-11-14T10:50:54.933Z,6.35
2016-11-14T10:51:54.204Z,6.59
2016-11-14T10:52:54.833Z,6.4
2016-11-14T10:53:55.472Z,6.72
2016-11-14T10:54:54.285Z,6.8
2016-11-14T10:55:54.301Z,7.11
2016-11-14T10:56:54.344Z,7.27
2016-11-14T10:57:54.967Z,7.45
2016-11-14T10:58:55.338Z,7.41
2016-11-14T10:59:54.943Z,7.3
2016-11-14T11:00:54.229Z,7.35
2016-11-14T11:01:53.986Z,7.26
2016-11-14T11:02:54.606Z,6.83
2016-11-14T11:03:54.588Z,6.88
2016-11-14T11:04:54.542Z,7.08
2016-11-14T11:05:55.202Z,7.08
2016-11-14T11:06:54.603Z,6.78
2016-11-14T11:07:54.783Z,6.32
2016-11-14T11:08:54.546Z,6.08
2016-11-14T11:09:55.103Z,6.16
2016-11-14T11:10:54.499Z,6.36
2016-11-14T11:11:54.406Z,6.44
2016-11-14T11:12:53.990Z,6.45
2016-11-14T11:13:55.053Z,6.68
2016-11-14T11:14:54.834Z,6.57
2016-11-14T11:15:54.564Z,6.52
2016-11-14T11:16:54.935Z,6.65
2016-11-14T11:17:54.566Z,6.72
2016-11-14T11:18:53.527Z,6.86
2016-11-14T11:19:53.577Z,6.99
2016-11-14T11:20:53.806Z,7.2
2016-11-14T11:21:54.870Z,7.42
2016-11-14T11:22:53.757Z,7.31
2016-11-14T11:23:54.808Z,6.66
2016-11-14T11:24:54.143Z,6.57
2016-11-14T11:25:54.834Z,6.52
2016-11-14T11:26:54.344Z,6.59
2016-11-14T11:27:54.184Z,6.88
2016-11-14T11:28:54.703Z,7.01
2016-11-14T11:29:54.257Z,6.91
2016-11-14T11:30:54.516Z,6.99
2016-11-14T11:31:54.251Z,6.99
2016-11-14T11:32:54.338Z,6.98
2016-11-14T11:33:53.759Z,6.66
2016-11-14T11:34:53.952Z,6.57
2016-11-14T11:35:53.244Z,6.45
2016-11-14T11:36:54.098Z,6.36
2016-11-14T11:37:53.359Z,6.41
2016-11-14T11:38:54.060Z,6.37
2016-11-14T11:39:53.747Z,6.43
2016-11-14T11:40:53.773Z,6.63
2016-11-14T11:41:53.266Z,6.7
2016-11-14T11:42:54.258Z,6.69
2016-11-14T11:43:53.691Z,6.7
2016-11-14T11:44:53.836Z,6.57
2016-11-14T11:45:54.332Z,6.63
2016-11-14T11:46:53.878Z,6.57
2016-11-14T11:47:54.298Z,6.69
2016-11-14T11:48:53.519Z,6.68
2016-11-14T11:49:53.603Z,6.32
2016-11-14T11:50:53.792Z,6.33
2016-11-14T11:51:54.041Z,6.48
2016-11-14T11:52:53.449Z,6.41
2016-11-14T11:53:53.751Z,6.55
2016-11-14T11:54:53.717Z,6.36
2016-11-14T11:55:53.362Z,6.59
2016-11-14T11:56:53.683Z,6.81
2016-11-14T11:57:53.415Z,7.01
2016-11-14T11:58:53.631Z,6.81
2016-11-14T11:59:53.186Z,6.83
2016-11-14T12:00:53.983Z,6.9
2016-11-14T12:01:53.240Z,6.72
2016-11-14T12:02:53.152Z,6.35
2016-11-14T12:03:53.507Z,6.37
2016-11-14T12:04:53.760Z,6.43
2016-11-14T12:05:53.226Z,6.72
2016-11-14T12:06:52.483Z,6.93
2016-11-14T12:07:52.472Z,7.08
2016-11-14T12:08:53.663Z,6.68
2016-11-14T12:09:53.012Z,6.47
2016-11-14T12:10:52.652Z,6.41
2016-11-14T12:11:53.335Z,6.22
2016-11-14T12:12:53.089Z,6.07
2016-11-14T12:13:53.052Z,6.08
2016-11-14T12:14:52.974Z,5.81
2016-11-14T12:15:52.409Z,5.99
2016-11-14T12:16:52.862Z,5.85
2016-11-14T12:17:52.303Z,5.93
2016-11-14T12:18:52.966Z,6
2016-11-14T12:19:53.573Z,6.07
2016-11-14T12:20:53.412Z,6.06
2016-11-14T12:21:52.371Z,6.27
2016-11-14T12:22:53.352Z,6.07
2016-11-14T12:23:53.062Z,6.14
2016-11-14T12:24:53.093Z,6.3
2016-11-14T12:25:53.433Z,6.32
2016-11-14T12:26:52.110Z,6.5
2016-11-14T12:27:52.721Z,6.27
2016-11-14T12:28:52.161Z,6.11
2016-11-14T12:29:52.510Z,6.17
2016-11-14T12:30:52.676Z,6.04
2016-11-14T12:31:52.892Z,6.14
2016-11-14T12:32:52.614Z,6.27
2016-11-14T12:33:52.828Z,6.03
2016-11-14T12:34:53.237Z,6.07
2016-11-14T12:35:53.227Z,5.93
2016-11-14T12:36:51.787Z,5.92
2016-11-14T12:37:51.793Z,5.92
2016-11-14T12:38:52.465Z,5.96
2016-11-14T12:39:52.334Z,6.1
2016-11-14T12:40:53.111Z,6.36
2016-11-14T12:41:53.050Z,6.35
2016-11-14T12:42:51.971Z,6.22
2016-11-14T12:43:53.014Z,5.9
2016-11-14T12:44:52.993Z,5.98
2016-11-14T12:45:52.564Z,6.07
2016-11-14T12:46:52.368Z,6.03
2016-11-14T12:47:52.935Z,5.9
2016-11-14T12:48:52.499Z,6.1
2016-11-14T12:49:52.455Z,5.9
2016-11-14T12:50:52.860Z,6.07
2016-11-14T12:51:52.492Z,6.14
2016-11-14T12:52:51.432Z,6.25
2016-11-14T12:53:52.065Z,6.32
2016-11-14T12:54:52.020Z,6.4
2016-11-14T12:55:52.305Z,6.27
2016-11-14T12:56:52.162Z,6.48
2016-11-14T12:57:51.856Z,6.68
2016-11-14T12:58:51.352Z,6.81
2016-11-14T12:59:52.239Z,6.37
2016-11-14T13:00:52.231Z,6.27
2016-11-14T13:01:51.861Z,6.41
2016-11-14T13:02:52.583Z,6.33
2016-11-14T13:03:51.391Z,6.47
2016-11-14T13:04:51.740Z,6.47
2016-11-14T13:05:51.114Z,6.57
2016-11-14T13:06:51.761Z,6.35
2016-11-14T13:07:51.759Z,6.59
2016-11-14T13:08:51.679Z,6.66
2016-11-14T13:09:51.344Z,6.62
2016-11-14T13:10:51.641Z,6.62
2016-11-14T13:11:51.711Z,6.55
2016-11-14T13:12:52.327Z,6.63
2016-11-14T13:13:52.349Z,6.9
2016-11-14T13:14:51.631Z,6.73
2016-11-14T13:15:51.629Z,6.72
2016-11-14T13:16:51.422Z,6.88
2016-11-14T13:17:52.205Z,7.06